createdAt,value
2019-05-12T00:00:48.167Z,101006.60
2019-05-12T00:01:51.590Z,101005.67
2019-05-12T00:02:56.077Z,101005.41
2019-05-12T00:04:00.330Z,101009.05
2019-05-12T00:05:05.233Z,101005.95
2019-05-12T00:06:09.519Z,101006.80
2019-05-12T00:07:13.950Z,101012.11
2019-05-12T00:08:18.885Z,101013.80
2019-05-12T00:09:23.586Z,101008.20
2019-05-12T00:10:28.374Z,101009.31
2019-05-12T00:11:32.830Z,101011.26
2019-05-12T00:12:38.416Z,101009.57
2019-05-12T00:13:43.046Z,101010.41
2019-05-12T00:14:48.534Z,101021.59
2019-05-12T00:15:53.122Z,101017.64
2019-05-12T00:16:58.095Z,101015.69
2019-05-12T00:18:02.553Z,101021.28
2019-05-12T00:19:09.091Z,101024.92
2019-05-12T00:20:12.869Z,101020.43
2019-05-12T00:21:17.676Z,101024.33
2019-05-12T00:22:23.612Z,101022.94
2019-05-12T00:23:31.098Z,101032.42
2019-05-12T00:24:34.280Z,101021.80
2019-05-12T00:25:38.909Z,101025.08
2019-05-12T00:26:43.573Z,101027.88
2019-05-12T00:27:48.604Z,101026.45
2019-05-12T00:28:53.678Z,101034.57
2019-05-12T00:29:58.035Z,101034.54
2019-05-12T00:31:02.465Z,101029.80
2019-05-12T00:32:08.554Z,101028.69
2019-05-12T00:33:13.014Z,101030.34
2019-05-12T00:34:18.422Z,101032.56
2019-05-12T00:35:23.005Z,101038.12
2019-05-12T00:36:29.380Z,101042.28
2019-05-12T00:37:35.048Z,101043.97
2019-05-12T00:38:40.093Z,101043.13
2019-05-12T00:39:44.459Z,101048.94
2019-05-12T00:40:48.693Z,101046.70
2019-05-12T00:41:53.057Z,101050.89
2019-05-12T00:42:57.898Z,101051.73
2019-05-12T00:44:02.319Z,101058.72
2019-05-12T00:45:08.267Z,101054.53
2019-05-12T00:46:12.810Z,101056.25
2019-05-12T00:47:18.804Z,101055.59
2019-05-12T00:48:23.327Z,101060.64
2019-05-12T00:49:28.928Z,101059.50
2019-05-12T00:50:33.737Z,101054.45
2019-05-12T00:51:38.338Z,101059.20
2019-05-12T00:52:42.950Z,101062.84
2019-05-12T00:53:47.937Z,101070.09
2019-05-12T00:54:53.548Z,101068.66
2019-05-12T00:55:58.041Z,101066.97
2019-05-12T00:57:02.446Z,101073.14
2019-05-12T00:58:08.319Z,101073.40
2019-05-12T00:59:13.038Z,101078.98
2019-05-12T01:00:17.875Z,101082.04
2019-05-12T01:01:22.626Z,101082.04
2019-05-12T01:02:28.639Z,101082.81
2019-05-12T01:03:33.223Z,101083.37
2019-05-12T01:04:39.029Z,101091.20
2019-05-12T01:05:43.506Z,101085.31
2019-05-12T01:06:48.627Z,101094.80
2019-05-12T01:07:53.897Z,101095.57
2019-05-12T01:08:58.435Z,101101.93
2019-05-12T01:10:04.841Z,101101.23
2019-05-12T01:11:08.977Z,101104.32
2019-05-12T01:12:13.693Z,101103.09
2019-05-12T01:13:18.667Z,101108.91
2019-05-12T01:14:23.472Z,101107.29
2019-05-12T01:15:28.733Z,101115.97
2019-05-12T01:16:33.500Z,101116.27
2019-05-12T01:17:40.135Z,101117.41
2019-05-12T01:18:45.029Z,101114.86
2019-05-12T01:19:49.322Z,101114.61
2019-05-12T01:20:53.686Z,101108.73
2019-05-12T01:21:58.705Z,101116.22
2019-05-12T01:23:03.329Z,101118.14
2019-05-12T01:24:08.750Z,101122.88
2019-05-12T01:25:13.701Z,101116.22
2019-05-12T01:26:18.107Z,101116.44
2019-05-12T01:27:22.413Z,101123.94
2019-05-12T01:28:27.843Z,101121.98
2019-05-12T01:29:32.518Z,101122.24
2019-05-12T01:30:39.057Z,101126.98
2019-05-12T01:31:48.633Z,101128.97
2019-05-12T01:32:53.125Z,101127.28
2019-05-12T01:33:58.626Z,101139.30
2019-05-12T01:35:08.122Z,101134.85
2019-05-12T01:36:13.477Z,101142.34
2019-05-12T01:37:23.854Z,101147.92
2019-05-12T01:38:28.711Z,101143.73
2019-05-12T01:39:33.259Z,101139.47
2019-05-12T01:40:39.274Z,101147.55
2019-05-12T01:41:43.979Z,101143.03
2019-05-12T01:42:48.472Z,101147.73
2019-05-12T01:43:52.705Z,101147.68
2019-05-12T01:44:58.463Z,101147.34
2019-05-12T01:46:02.812Z,101147.34
2019-05-12T01:47:08.330Z,101150.43
2019-05-12T01:48:12.694Z,101147.84
2019-05-12T01:49:18.692Z,101151.41
2019-05-12T01:50:23.083Z,101154.50
2019-05-12T01:51:28.449Z,101157.84
2019-05-12T01:52:32.761Z,101165.66
2019-05-12T01:53:37.936Z,101157.84
2019-05-12T01:54:42.296Z,101172.65
2019-05-12T01:55:48.599Z,101165.12
2019-05-12T01:56:52.897Z,101162.66
2019-05-12T01:57:57.965Z,101166.30
2019-05-12T01:59:02.318Z,101174.05
2019-05-12T02:00:09.826Z,101177.94
2019-05-12T02:01:14.146Z,101179.33
2019-05-12T02:02:18.552Z,101180.13
2019-05-12T02:03:22.781Z,101179.03
2019-05-12T02:04:28.640Z,101178.19
2019-05-12T02:05:32.827Z,101184.62
2019-05-12T02:06:38.580Z,101184.32
2019-05-12T02:07:44.750Z,101189.36
2019-05-12T02:08:50.906Z,101192.69
2019-05-12T02:09:55.266Z,101198.58
2019-05-12T02:11:18.360Z,101203.86
2019-05-12T02:12:22.662Z,101205.80
2019-05-12T02:13:27.767Z,101207.45
2019-05-12T02:14:31.943Z,101207.45
2019-05-12T02:15:38.268Z,101204.66
2019-05-12T02:16:42.399Z,101205.21
2019-05-12T02:17:48.107Z,101206.61
2019-05-12T02:18:52.442Z,101198.61
2019-05-12T02:19:58.685Z,101211.34
2019-05-12T02:21:03.063Z,101214.98
2019-05-12T02:22:08.420Z,101214.98
2019-05-12T02:23:12.858Z,101220.81
2019-05-12T02:24:26.789Z,101219.42
2019-05-12T02:25:23.098Z,101221.61
2019-05-12T02:26:29.041Z,101227.75
2019-05-12T02:27:34.412Z,101221.02
2019-05-12T02:28:39.466Z,101225.12
2019-05-12T02:29:43.872Z,101216.97
2019-05-12T02:30:50.166Z,101225.34
2019-05-12T02:31:54.449Z,101221.16
2019-05-12T02:32:59.796Z,101220.56
2019-05-12T02:34:05.674Z,101227.53
2019-05-12T02:35:10.381Z,101221.36
2019-05-12T02:36:15.207Z,101224.09
2019-05-12T02:37:19.935Z,101225.49
2019-05-12T02:38:25.338Z,101226.84
2019-05-12T02:39:29.733Z,101237.62
2019-05-12T02:40:34.670Z,101237.87
2019-05-12T02:41:39.530Z,101243.45
2019-05-12T02:42:46.292Z,101241.75
2019-05-12T02:43:49.882Z,101238.11
2019-05-12T02:44:55.203Z,101242.85
2019-05-12T02:45:59.666Z,101245.89
2019-05-12T02:47:05.254Z,101248.33
2019-05-12T02:48:10.012Z,101242.91
2019-05-12T02:49:15.863Z,101247.89
2019-05-12T02:50:36.012Z,101249.28
2019-05-12T02:51:40.841Z,101252.62
2019-05-12T02:52:45.203Z,101249.83
2019-05-12T02:53:49.437Z,101255.96
2019-05-12T02:54:59.798Z,101250.08
2019-05-12T02:55:59.771Z,101253.42
2019-05-12T02:57:04.900Z,101253.42
2019-05-12T02:58:09.130Z,101252.57
2019-05-12T02:59:16.272Z,101255.61
2019-05-12T03:00:19.518Z,101261.98
2019-05-12T03:01:24.573Z,101261.29
2019-05-12T03:02:29.116Z,101258.50
2019-05-12T03:03:35.274Z,101257.90
2019-05-12T03:04:40.634Z,101262.09
2019-05-12T03:05:45.232Z,101264.27
2019-05-12T03:06:49.489Z,101269.91
2019-05-12T03:07:55.284Z,101267.97
2019-05-12T03:09:04.944Z,101265.06
2019-05-12T03:10:09.380Z,101268.41
2019-05-12T03:11:14.812Z,101267.85
2019-05-12T03:12:19.466Z,101263.97
2019-05-12T03:13:25.291Z,101269.25
2019-05-12T03:14:30.238Z,101279.47
2019-05-12T03:15:36.715Z,101279.47
2019-05-12T03:16:40.455Z,101276.93
2019-05-12T03:17:45.643Z,101286.78
2019-05-12T03:18:50.003Z,101287.78
2019-05-12T03:19:55.695Z,101278.87
2019-05-12T03:21:00.183Z,101283.59
2019-05-12T03:22:05.151Z,101278.27
2019-05-12T03:23:09.828Z,101282.88
2019-05-12T03:24:17.397Z,101290.41
2019-05-12T03:25:25.017Z,101292.88
2019-05-12T03:26:25.930Z,101289.25
2019-05-12T03:27:30.292Z,101294.28
2019-05-12T03:28:35.544Z,101299.01
2019-05-12T03:29:40.401Z,101308.22
2019-05-12T03:30:48.211Z,101302.10
2019-05-12T03:31:50.768Z,101297.07
2019-05-12T03:32:57.948Z,101302.65
2019-05-12T03:34:08.199Z,101309.92
2019-05-12T03:35:08.628Z,101308.77
2019-05-12T03:36:17.802Z,101307.47
2019-05-12T03:37:18.996Z,101312.44
2019-05-12T03:38:25.057Z,101314.93
2019-05-12T03:39:29.326Z,101314.63
2019-05-12T03:40:37.536Z,101322.83
2019-05-12T03:41:39.727Z,101322.83
2019-05-12T03:42:45.156Z,101332.45
2019-05-12T03:43:49.411Z,101338.47
2019-05-12T03:44:54.718Z,101336.47
2019-05-12T03:46:00.318Z,101337.87
2019-05-12T03:47:05.203Z,101345.14
2019-05-12T03:48:09.466Z,101347.62
2019-05-12T03:49:15.401Z,101349.02
2019-05-12T03:50:19.915Z,101351.50
2019-05-12T03:51:25.294Z,101348.72
2019-05-12T03:52:29.530Z,101348.17
2019-05-12T03:53:35.256Z,101356.53
2019-05-12T03:54:39.715Z,101349.02
2019-05-12T03:55:46.786Z,101341.20
2019-05-12T03:56:50.975Z,101352.35
2019-05-12T03:57:55.342Z,101352.89
2019-05-12T03:58:59.639Z,101349.80
2019-05-12T04:00:06.369Z,101347.27
2019-05-12T04:01:14.746Z,101349.20
2019-05-12T04:02:17.564Z,101352.77
2019-05-12T04:03:24.457Z,101341.02
2019-05-12T04:04:28.091Z,101344.10
2019-05-12T04:05:34.895Z,101356.89
2019-05-12T04:06:38.732Z,101352.77
2019-05-12T04:07:45.044Z,101357.80
2019-05-12T04:08:49.627Z,101366.71
2019-05-12T04:09:54.870Z,101358.05
2019-05-12T04:10:59.662Z,101360.59
2019-05-12T04:12:05.272Z,101368.41
2019-05-12T04:13:09.986Z,101372.22
2019-05-12T04:14:15.036Z,101372.44
2019-05-12T04:15:20.143Z,101376.95
2019-05-12T04:16:24.845Z,101373.38
2019-05-12T04:17:29.578Z,101383.44
2019-05-12T04:18:34.808Z,101386.23
2019-05-12T04:19:39.428Z,101379.80
2019-05-12T04:20:45.278Z,101385.92
2019-05-12T04:21:49.853Z,101389.86
2019-05-12T04:22:54.842Z,101388.53
2019-05-12T04:23:59.243Z,101393.33
2019-05-12T04:25:06.031Z,101389.69
2019-05-12T04:26:13.329Z,101400.36
2019-05-12T04:27:15.831Z,101398.72
2019-05-12T04:28:20.259Z,101399.81
2019-05-12T04:29:25.116Z,101405.94
2019-05-12T04:30:29.611Z,101401.69
2019-05-12T04:31:35.073Z,101403.69
2019-05-12T04:32:39.425Z,101408.48
2019-05-12T04:33:45.131Z,101404.94
2019-05-12T04:34:49.706Z,101408.34
2019-05-12T04:35:55.376Z,101407.19
2019-05-12T04:37:00.195Z,101410.36
2019-05-12T04:38:05.347Z,101409.20
2019-05-12T04:39:10.043Z,101412.36
2019-05-12T04:40:15.070Z,101423.81
2019-05-12T04:41:20.319Z,101425.32
2019-05-12T04:42:25.280Z,101419.81
2019-05-12T04:43:29.968Z,101431.27
2019-05-12T04:44:34.828Z,101432.52
2019-05-12T04:45:39.591Z,101433.13
2019-05-12T04:46:45.036Z,101421.50
2019-05-12T04:47:49.831Z,101437.14
2019-05-12T04:48:54.682Z,101437.20
2019-05-12T04:49:59.322Z,101442.84
2019-05-12T04:51:05.137Z,101441.55
2019-05-12T04:52:10.818Z,101439.14
2019-05-12T04:53:15.068Z,101444.48
2019-05-12T04:54:19.890Z,101440.39
2019-05-12T04:55:25.576Z,101439.91
2019-05-12T04:56:30.537Z,101444.94
2019-05-12T04:57:34.912Z,101449.19
2019-05-12T04:58:39.658Z,101445.80
2019-05-12T04:59:45.063Z,101451.38
2019-05-12T05:00:49.812Z,101452.83
2019-05-12T05:01:54.177Z,101446.64
2019-05-12T05:02:58.782Z,101450.89
2019-05-12T05:04:05.494Z,101455.68
2019-05-12T05:05:09.733Z,101459.63
2019-05-12T05:06:15.003Z,101457.78
2019-05-12T05:07:19.625Z,101457.84
2019-05-12T05:08:24.563Z,101459.55
2019-05-12T05:09:29.257Z,101463.48
2019-05-12T05:10:34.490Z,101470.46
2019-05-12T05:11:39.300Z,101471.92
2019-05-12T05:12:44.960Z,101478.89
2019-05-12T05:13:49.722Z,101476.95
2019-05-12T05:14:54.945Z,101474.77
2019-05-12T05:15:59.565Z,101483.98
2019-05-12T05:17:05.849Z,101481.54
2019-05-12T05:18:10.741Z,101485.18
2019-05-12T05:19:15.133Z,101483.78
2019-05-12T05:20:19.657Z,101481.54
2019-05-12T05:21:24.194Z,101485.78
2019-05-12T05:22:28.711Z,101495.92
2019-05-12T05:23:33.518Z,101505.38
2019-05-12T05:24:38.198Z,101500.41
2019-05-12T05:25:43.457Z,101506.59
2019-05-12T05:26:48.136Z,101506.05
2019-05-12T05:27:53.342Z,101512.79
2019-05-12T05:28:57.906Z,101511.70
2019-05-12T05:30:03.984Z,101515.37
2019-05-12T05:31:08.580Z,101520.80
2019-05-12T05:32:14.072Z,101523.83
2019-05-12T05:33:20.027Z,101521.34
2019-05-12T05:34:24.575Z,101526.20
2019-05-12T05:35:35.141Z,101528.08
2019-05-12T05:36:35.289Z,101533.41
2019-05-12T05:37:43.633Z,101530.92
2019-05-12T05:38:51.114Z,101534.02
2019-05-12T05:39:53.993Z,101536.60
2019-05-12T05:40:59.748Z,101531.33
2019-05-12T05:42:05.557Z,101535.27
2019-05-12T05:43:18.220Z,101540.38
2019-05-12T05:44:16.353Z,101537.45
2019-05-12T05:45:24.147Z,101540.61
2019-05-12T05:46:27.125Z,101542.62
2019-05-12T05:47:33.449Z,101548.62
2019-05-12T05:48:37.805Z,101556.51
2019-05-12T05:49:43.400Z,101555.48
2019-05-12T05:50:48.001Z,101550.51
2019-05-12T05:51:56.838Z,101558.03
2019-05-12T05:52:58.667Z,101555.30
2019-05-12T05:54:03.991Z,101553.70
2019-05-12T05:55:14.927Z,101562.37
2019-05-12T05:56:18.197Z,101562.45
2019-05-12T05:57:25.810Z,101568.09
2019-05-12T05:58:27.680Z,101570.09
2019-05-12T05:59:36.727Z,101565.45
2019-05-12T06:00:40.206Z,101569.98
2019-05-12T06:01:47.139Z,101572.29
2019-05-12T06:02:50.889Z,101573.08
2019-05-12T06:03:58.440Z,101578.66
2019-05-12T06:05:04.241Z,101571.44
2019-05-12T06:06:12.308Z,101573.98
2019-05-12T06:07:14.421Z,101579.09
2019-05-12T06:08:20.839Z,101583.03
2019-05-12T06:09:25.386Z,101584.73
2019-05-12T06:10:38.466Z,101585.89
2019-05-12T06:11:36.271Z,101586.53
2019-05-12T06:12:46.436Z,101582.80
2019-05-12T06:13:46.875Z,101586.23
2019-05-12T06:14:55.301Z,101582.55
2019-05-12T06:15:57.714Z,101597.70
2019-05-12T06:17:04.322Z,101594.60
2019-05-12T06:18:09.780Z,101596.85
2019-05-12T06:19:14.362Z,101601.34
2019-05-12T06:20:18.719Z,101598.31
2019-05-12T06:21:24.145Z,101593.27
2019-05-12T06:22:29.708Z,101604.75
2019-05-12T06:23:39.050Z,101609.48
2019-05-12T06:24:40.470Z,101603.59
2019-05-12T06:25:51.366Z,101600.86
2019-05-12T06:26:57.686Z,101604.80
2019-05-12T06:28:00.058Z,101606.27
2019-05-12T06:29:04.679Z,101603.78
2019-05-12T06:30:10.118Z,101610.33
2019-05-12T06:31:19.075Z,101609.00
2019-05-12T06:32:21.177Z,101611.18
2019-05-12T06:33:31.629Z,101621.02
2019-05-12T06:34:34.169Z,101619.31
2019-05-12T06:35:42.200Z,101622.96
2019-05-12T06:36:44.268Z,101622.96
2019-05-12T06:37:57.263Z,101622.96
2019-05-12T06:38:54.925Z,101624.66
2019-05-12T06:40:00.595Z,101616.89
2019-05-12T06:41:06.644Z,101630.92
2019-05-12T06:42:14.129Z,101624.78
2019-05-12T06:43:17.312Z,101631.77
2019-05-12T06:44:23.897Z,101626.82
2019-05-12T06:45:28.294Z,101633.02
2019-05-12T06:46:34.380Z,101627.52
2019-05-12T06:47:39.331Z,101629.92
2019-05-12T06:48:45.667Z,101629.92
2019-05-12T06:49:54.916Z,101633.02
2019-05-12T06:50:57.428Z,101634.73
2019-05-12T06:52:06.314Z,101631.21
2019-05-12T06:53:09.013Z,101637.71
2019-05-12T06:54:15.146Z,101644.81
2019-05-12T06:55:19.964Z,101647.77
2019-05-12T06:56:24.472Z,101643.28
2019-05-12T06:57:29.118Z,101644.34
2019-05-12T06:58:34.410Z,101647.83
2019-05-12T06:59:42.017Z,101654.64
2019-05-12T07:00:45.640Z,101652.94
2019-05-12T07:01:56.102Z,101651.55
2019-05-12T07:02:56.355Z,101659.67
2019-05-12T07:04:06.778Z,101653.79
2019-05-12T07:05:07.440Z,101656.09
2019-05-12T07:06:17.551Z,101661.69
2019-05-12T07:07:18.201Z,101658.75
2019-05-12T07:08:30.488Z,101663.06
2019-05-12T07:09:32.213Z,101648.66
2019-05-12T07:10:43.032Z,101665.38
2019-05-12T07:11:47.996Z,101665.67
2019-05-12T07:12:58.913Z,101668.77
2019-05-12T07:14:02.115Z,101669.41
2019-05-12T07:15:00.766Z,101673.91
2019-05-12T07:16:22.101Z,101678.09
2019-05-12T07:17:26.412Z,101673.06
2019-05-12T07:18:32.515Z,101677.80
2019-05-12T07:19:37.565Z,101676.22
2019-05-12T07:20:43.535Z,101677.98
2019-05-12T07:21:50.743Z,101682.56
2019-05-12T07:22:54.783Z,101682.08
2019-05-12T07:24:00.435Z,101678.80
2019-05-12T07:25:08.204Z,101679.95
2019-05-12T07:26:18.942Z,101679.95
2019-05-12T07:27:18.497Z,101680.02
2019-05-12T07:28:23.704Z,101680.80
2019-05-12T07:29:28.130Z,101660.02
2019-05-12T07:30:35.168Z,101680.02
2019-05-12T07:31:39.489Z,101678.55
2019-05-12T07:32:44.214Z,101680.31
2019-05-12T07:33:48.438Z,101684.05
2019-05-12T07:34:54.418Z,101682.17
2019-05-12T07:36:01.470Z,101685.88
2019-05-12T07:37:05.462Z,101691.77
2019-05-12T07:38:12.158Z,101685.15
2019-05-12T07:39:16.104Z,101695.84
2019-05-12T07:40:25.649Z,101688.91
2019-05-12T07:41:26.894Z,101694.26
2019-05-12T07:42:38.867Z,101694.45
2019-05-12T07:43:37.522Z,101696.14
2019-05-12T07:44:44.060Z,101698.76
2019-05-12T07:45:48.160Z,101700.30
2019-05-12T07:46:54.082Z,101698.42
2019-05-12T07:47:59.564Z,101699.02
2019-05-12T07:49:04.869Z,101705.77
2019-05-12T07:50:14.882Z,101701.08
2019-05-12T07:51:15.492Z,101708.72
2019-05-12T07:52:20.272Z,101705.83
2019-05-12T07:53:24.447Z,101705.22
2019-05-12T07:54:34.599Z,101708.87
2019-05-12T07:55:39.609Z,101701.82
2019-05-12T07:56:44.144Z,101701.82
2019-05-12T07:57:55.279Z,101709.87
2019-05-12T07:58:57.091Z,101707.83
2019-05-12T08:00:00.334Z,101713.91
2019-05-12T08:01:08.019Z,101718.41
2019-05-12T08:02:11.325Z,101724.31
2019-05-12T08:03:21.170Z,101720.75
2019-05-12T08:04:23.901Z,101726.34
2019-05-12T08:05:28.905Z,101733.09
2019-05-12T08:06:41.340Z,101728.50
2019-05-12T08:07:39.686Z,101737.98
2019-05-12T08:08:50.280Z,101737.38
2019-05-12T08:09:50.486Z,101732.15
2019-05-12T08:10:56.205Z,101735.49
2019-05-12T08:12:01.124Z,101741.78
2019-05-12T08:13:05.363Z,101743.00
2019-05-12T08:14:13.814Z,101743.88
2019-05-12T08:15:16.098Z,101747.92
2019-05-12T08:16:25.696Z,101745.25
2019-05-12T08:17:27.153Z,101746.16
2019-05-12T08:18:36.933Z,101749.59
2019-05-12T08:19:37.876Z,101744.75
2019-05-12T08:20:43.516Z,101746.80
2019-05-12T08:21:49.121Z,101753.54
2019-05-12T08:22:54.233Z,101747.09
2019-05-12T08:23:58.551Z,101749.41
2019-05-12T08:25:04.202Z,101754.51
2019-05-12T08:26:12.567Z,101748.97
2019-05-12T08:27:15.064Z,101752.37
2019-05-12T08:28:24.799Z,101753.86
2019-05-12T08:29:25.826Z,101748.57
2019-05-12T08:30:34.757Z,101744.12
2019-05-12T08:31:40.748Z,101750.88
2019-05-12T08:32:45.026Z,101746.44
2019-05-12T08:33:49.755Z,101752.16
2019-05-12T08:34:54.213Z,101750.06
2019-05-12T08:36:04.340Z,101754.55
2019-05-12T08:37:05.784Z,101750.80
2019-05-12T08:38:10.512Z,101752.92
2019-05-12T08:39:21.309Z,101754.47
2019-05-12T08:40:21.203Z,101761.52
2019-05-12T08:41:25.497Z,101753.73
2019-05-12T08:42:30.294Z,101754.45
2019-05-12T08:43:34.465Z,101759.26
2019-05-12T08:44:40.660Z,101758.10
2019-05-12T08:45:45.108Z,101761.27
2019-05-12T08:46:52.142Z,101750.97
2019-05-12T08:47:55.736Z,101755.06
2019-05-12T08:49:02.462Z,101761.02
2019-05-12T08:50:06.442Z,101760.82
2019-05-12T08:51:19.378Z,101770.67
2019-05-12T08:52:17.139Z,101773.47
2019-05-12T08:53:23.557Z,101769.52
2019-05-12T08:54:27.800Z,101761.21
2019-05-12T08:55:35.371Z,101773.37
2019-05-12T08:56:38.518Z,101768.42
2019-05-12T08:57:49.429Z,101768.56
2019-05-12T08:58:51.405Z,101770.92
2019-05-12T09:00:02.825Z,101768.48
2019-05-12T09:01:04.216Z,101766.36
2019-05-12T09:02:10.682Z,101777.20
2019-05-12T09:03:14.350Z,101772.02
2019-05-12T09:04:19.352Z,101776.66
2019-05-12T09:05:25.851Z,101779.20
2019-05-12T09:06:29.948Z,101771.70
2019-05-12T09:07:35.987Z,101772.36
2019-05-12T09:08:45.239Z,101777.45
2019-05-12T09:09:46.869Z,101776.98
2019-05-12T09:10:55.178Z,101776.98
2019-05-12T09:11:58.632Z,101781.79
2019-05-12T09:13:04.159Z,101779.04
2019-05-12T09:14:08.447Z,101784.44
2019-05-12T09:15:13.695Z,101787.88
2019-05-12T09:16:17.920Z,101786.69
2019-05-12T09:17:23.236Z,101782.87
2019-05-12T09:18:33.584Z,101777.31
2019-05-12T09:19:34.027Z,101782.16
2019-05-12T09:20:39.395Z,101782.55
2019-05-12T09:21:44.943Z,101783.44
2019-05-12T09:22:55.030Z,101780.94
2019-05-12T09:23:56.171Z,101782.69
2019-05-12T09:25:06.253Z,101782.44
2019-05-12T09:26:06.865Z,101776.02
2019-05-12T09:27:11.057Z,101785.61
2019-05-12T09:28:15.900Z,101783.16
2019-05-12T09:29:20.072Z,101782.09
2019-05-12T09:30:28.998Z,101786.00
2019-05-12T09:31:34.167Z,101782.99
2019-05-12T09:32:44.436Z,101781.16
2019-05-12T09:33:46.024Z,101788.59
2019-05-12T09:34:53.141Z,101783.41
2019-05-12T09:35:56.830Z,101782.68
2019-05-12T09:37:03.840Z,101791.80
2019-05-12T09:38:11.298Z,101785.44
2019-05-12T09:39:14.267Z,101786.19
2019-05-12T09:40:20.720Z,101778.77
2019-05-12T09:41:25.017Z,101778.63
2019-05-12T09:42:30.214Z,101777.92
2019-05-12T09:43:35.024Z,101780.32
2019-05-12T09:44:41.320Z,101782.65
2019-05-12T09:45:52.043Z,101783.56
2019-05-12T09:46:53.411Z,101787.36
2019-05-12T09:47:58.959Z,101780.22
2019-05-12T09:49:04.768Z,101787.89
2019-05-12T09:50:15.280Z,101786.33
2019-05-12T09:51:17.259Z,101794.03
2019-05-12T09:52:27.015Z,101791.30
2019-05-12T09:53:28.165Z,101789.10
2019-05-12T09:54:40.301Z,101795.05
2019-05-12T09:55:38.930Z,101791.74
2019-05-12T09:56:44.183Z,101793.15
2019-05-12T09:57:48.684Z,101794.03
2019-05-12T09:59:01.379Z,101795.44
2019-05-12T09:59:59.641Z,101801.25
2019-05-12T10:01:04.976Z,101797.66
2019-05-12T10:02:10.358Z,101794.23
2019-05-12T10:03:16.485Z,101793.64
2019-05-12T10:04:20.890Z,101793.70
2019-05-12T10:05:30.439Z,101793.37
2019-05-12T10:06:33.779Z,101790.02
2019-05-12T10:07:37.979Z,101792.23
2019-05-12T10:08:43.571Z,101799.78
2019-05-12T10:09:49.286Z,101792.77
2019-05-12T10:10:54.484Z,101801.74
2019-05-12T10:12:00.856Z,101802.89
2019-05-12T10:13:05.150Z,101802.30
2019-05-12T10:14:10.926Z,101793.94
2019-05-12T10:15:18.743Z,101800.17
2019-05-12T10:16:23.932Z,101800.41
2019-05-12T10:17:30.212Z,101799.91
2019-05-12T10:18:34.337Z,101800.20
2019-05-12T10:19:38.531Z,101802.23
2019-05-12T10:20:44.142Z,101803.08
2019-05-12T10:21:49.062Z,101801.70
2019-05-12T10:22:55.153Z,101803.17
2019-05-12T10:24:01.876Z,101809.08
2019-05-12T10:25:07.884Z,101800.94
2019-05-12T10:26:14.577Z,101803.20
2019-05-12T10:27:21.037Z,101804.37
2019-05-12T10:28:25.436Z,101809.20
2019-05-12T10:29:31.012Z,101806.74
2019-05-12T10:30:36.329Z,101809.87
2019-05-12T10:31:41.058Z,101806.80
2019-05-12T10:32:45.230Z,101809.98
2019-05-12T10:33:55.015Z,101811.98
2019-05-12T10:34:55.956Z,101805.24
2019-05-12T10:36:06.729Z,101799.09
2019-05-12T10:37:06.576Z,101805.30
2019-05-12T10:38:13.457Z,101808.69
2019-05-12T10:39:17.164Z,101808.20
2019-05-12T10:40:23.314Z,101816.97
2019-05-12T10:41:27.501Z,101808.85
2019-05-12T10:42:33.601Z,101801.32
2019-05-12T10:43:38.850Z,101801.32
2019-05-12T10:44:43.770Z,101815.25
2019-05-12T10:45:47.949Z,101813.06
2019-05-12T10:46:54.752Z,101812.50
2019-05-12T10:47:58.936Z,101812.31
2019-05-12T10:49:04.000Z,101812.95
2019-05-12T10:50:08.123Z,101808.09
2019-05-12T10:51:12.977Z,101814.11
2019-05-12T10:52:17.170Z,101815.56
2019-05-12T10:53:23.530Z,101816.15
2019-05-12T10:54:27.924Z,101814.20
2019-05-12T10:55:33.553Z,101815.92
2019-05-12T10:56:38.107Z,101804.91
2019-05-12T10:57:43.938Z,101815.36
2019-05-12T10:58:48.844Z,101818.75
2019-05-12T10:59:53.572Z,101811.79
2019-05-12T11:01:03.984Z,101808.70
2019-05-12T11:02:04.353Z,101816.06
2019-05-12T11:03:12.214Z,101806.83
2019-05-12T11:04:14.948Z,101810.54
2019-05-12T11:05:21.777Z,101809.71
2019-05-12T11:06:26.025Z,101806.05
2019-05-12T11:07:30.220Z,101814.78
2019-05-12T11:08:35.064Z,101815.03
2019-05-12T11:09:39.238Z,101809.94
2019-05-12T11:10:43.964Z,101815.32
2019-05-12T11:11:48.173Z,101815.91
2019-05-12T11:12:52.866Z,101814.55
2019-05-12T11:13:57.145Z,101816.55
2019-05-12T11:15:06.824Z,101810.91
2019-05-12T11:16:07.800Z,101814.84
2019-05-12T11:17:13.839Z,101816.27
2019-05-12T11:18:20.727Z,101821.38
2019-05-12T11:19:24.837Z,101819.68
2019-05-12T11:20:29.006Z,101818.88
2019-05-12T11:21:33.883Z,101821.42
2019-05-12T11:22:39.094Z,101823.41
2019-05-12T11:23:43.896Z,101822.00
2019-05-12T11:24:48.099Z,101833.27
2019-05-12T11:25:53.338Z,101826.53
2019-05-12T11:26:57.823Z,101832.75
2019-05-12T11:28:03.724Z,101824.62
2019-05-12T11:29:08.098Z,101823.24
2019-05-12T11:30:13.244Z,101824.66
2019-05-12T11:31:17.453Z,101827.00
2019-05-12T11:32:23.210Z,101830.98
2019-05-12T11:33:27.434Z,101825.42
2019-05-12T11:34:33.540Z,101820.32
2019-05-12T11:35:37.818Z,101827.64
2019-05-12T11:36:43.740Z,101827.30
2019-05-12T11:37:48.944Z,101831.82
2019-05-12T11:38:53.724Z,101829.55
2019-05-12T11:39:58.058Z,101827.08
2019-05-12T11:41:04.273Z,101827.88
2019-05-12T11:42:09.665Z,101827.08
2019-05-12T11:43:14.620Z,101826.84
2019-05-12T11:44:18.987Z,101826.03
2019-05-12T11:45:24.162Z,101826.35
2019-05-12T11:46:28.532Z,101836.53
2019-05-12T11:47:35.668Z,101833.97
2019-05-12T11:48:40.373Z,101839.08
2019-05-12T11:49:45.736Z,101839.37
2019-05-12T11:50:51.349Z,101833.22
2019-05-12T11:51:56.178Z,101832.39
2019-05-12T11:53:00.351Z,101838.59
2019-05-12T11:54:08.933Z,101839.72
2019-05-12T11:55:13.377Z,101841.19
2019-05-12T11:56:17.972Z,101844.02
2019-05-12T11:57:28.252Z,101842.09
2019-05-12T11:58:29.359Z,101838.16
2019-05-12T11:59:34.143Z,101841.25
2019-05-12T12:00:40.158Z,101844.88
2019-05-12T12:01:49.394Z,101844.08
2019-05-12T12:02:51.715Z,101852.27
2019-05-12T12:03:55.890Z,101845.78
2019-05-12T12:05:00.620Z,101847.48
2019-05-12T12:06:04.923Z,101845.50
2019-05-12T12:07:09.770Z,101843.86
2019-05-12T12:08:14.598Z,101837.66
2019-05-12T12:09:20.621Z,101852.61
2019-05-12T12:10:29.201Z,101849.80
2019-05-12T12:11:31.287Z,101850.13
2019-05-12T12:12:39.663Z,101849.00
2019-05-12T12:13:42.058Z,101852.94
2019-05-12T12:14:50.345Z,101847.83
2019-05-12T12:15:52.810Z,101849.23
2019-05-12T12:16:57.041Z,101841.90
2019-05-12T12:18:12.434Z,101852.62
2019-05-12T12:19:08.938Z,101849.52
2019-05-12T12:20:22.406Z,101848.11
2019-05-12T12:21:23.904Z,101843.59
2019-05-12T12:22:29.977Z,101847.25
2019-05-12T12:23:34.635Z,101848.37
2019-05-12T12:24:40.333Z,101845.23
2019-05-12T12:25:48.726Z,101843.53